Terminal Aerodrome Forecast
Issued by NWS Nashville, TN

Home | Current Version | Previous Version | Text Only | Print | Product List | Glossary On
Versions: 1 2 3 4 5 6 7 8 9 10 11 12 13 14 15 16 17 18 19 20 21 22
000
FTUS44 KOHX 021700
TAFBNA
TAF
KBNA 021723Z 0218/0318 04009KT 6SM BR SCT020 BKN150
     FM030100 06004KT P6SM OVC040
     FM030300 05004KT P6SM OVC025
     FM030900 14005KT 5SM -SHRA BR OVC015
     FM031100 15003KT 5SM -SHRA BR OVC009=

USA.gov is the U.S. government's official web portal to all federal, state and local government web resources and services.